Barnes Municipal Airport Westfield,Springfield US
ICAO: KBAF
IATA: BAF
Category: Medium
Scheduled Services: No

Elevation: 271 ft
TransAlt. 18000 ft.

Airport Communications:
BRADLEY APP/DEP:125.35
ATIS:127.1
BRADLEY CLNC DEL:121.7
CTAF:118.9
GND:121.7
ARNG OPS:46.75
ANG OPS CNTR:30.3
BURLINGTON RDO:113
WESTFIELD TWR:118.9

KBAF Zoom In..

Runways:

(A) RW 02 length 9000 ft width 150 ft
---- / hdg 24

(B) RW 15 length 5000 ft width 100 ft
---- / hdg 154

(C) RW 20 length 9000 ft width 150 ft
ILS 111.90 / hdg 204

(D) RW 33 length 5000 ft width 100 ft
---- / hdg 334

Location; KBAF
Day. 30 / Time. 22.53 Zulu
* Altimeter: 29.45
* Temperature: 16° c. 60.8°f.
* Wind from: 150° Speed 14 kn with Gusts up to 25 kn.
Dewpoint: 16° c.
Visibility: 7 Statute Miles.
Clouds: Broken 1500 ft.
Clouds: Overcast 2200 ft.
Conditions: Rain.

KBAF 302253Z 15014G25KT 7SM RA BKN015 OVC022 16/16 A2945 RMK AO2 SLP975 P0020 T01610156

Going to: --> -->


Wind From 150°
Speed 14 kn.

 
 
jpsmedia worldairports.se 2020   terms of use